createdAt,value
2018-08-17T00:00:55.014Z,22.8
2018-08-17T00:01:58.654Z,22.8
2018-08-17T00:03:00.607Z,22.7
2018-08-17T00:04:01.919Z,22.6
2018-08-17T00:05:03.184Z,22.4
2018-08-17T00:06:07.392Z,22.4
2018-08-17T00:07:08.638Z,22.6
2018-08-17T00:08:09.902Z,22.6
2018-08-17T00:09:13.623Z,22.3
2018-08-17T00:10:14.824Z,22.8
2018-08-17T00:11:17.900Z,22.7
2018-08-17T00:12:19.191Z,22.4
2018-08-17T00:13:20.391Z,22.7
2018-08-17T00:14:23.426Z,22.7
2018-08-17T00:15:27.003Z,22.4
2018-08-17T00:16:28.243Z,22.4
2018-08-17T00:17:29.448Z,22.5
2018-08-17T00:18:30.640Z,22.4
2018-08-17T00:19:31.864Z,22.3
2018-08-17T00:20:33.082Z,22.3
2018-08-17T00:21:37.298Z,22.3
2018-08-17T00:22:41.557Z,22.5
2018-08-17T00:23:42.738Z,22.4
2018-08-17T00:24:49.619Z,22.4
2018-08-17T00:25:53.350Z,22
2018-08-17T00:26:54.503Z,22.1
2018-08-17T00:27:55.834Z,21.9
2018-08-17T00:28:57.007Z,21.9
2018-08-17T00:29:59.028Z,22.2
2018-08-17T00:31:00.224Z,22.1
2018-08-17T00:32:01.439Z,22.4
2018-08-17T00:33:02.678Z,22.6
2018-08-17T00:34:03.894Z,22
2018-08-17T00:35:05.128Z,21.8
2018-08-17T00:36:06.357Z,21.8
2018-08-17T00:37:10.338Z,22.3
2018-08-17T00:38:11.556Z,22
2018-08-17T00:39:12.764Z,22
2018-08-17T00:40:14.005Z,22
2018-08-17T00:41:17.434Z,22.1
2018-08-17T00:42:18.721Z,21.9
2018-08-17T00:43:19.942Z,21.8
2018-08-17T00:44:21.149Z,22.1
2018-08-17T00:45:22.402Z,22
2018-08-17T00:46:23.617Z,22.1
2018-08-17T00:47:24.880Z,22.1
2018-08-17T00:48:26.070Z,22.3
2018-08-17T00:49:29.702Z,22.6
2018-08-17T00:50:30.957Z,22.6
2018-08-17T00:51:32.153Z,22.5
2018-08-17T00:52:33.395Z,22.6
2018-08-17T00:53:37.413Z,22.7
2018-08-17T00:54:38.663Z,22.7
2018-08-17T00:55:42.420Z,22.5
2018-08-17T00:56:46.086Z,22.6
2018-08-17T00:57:47.365Z,22.8
2018-08-17T00:58:48.568Z,22.9
2018-08-17T00:59:49.764Z,22.9
2018-08-17T01:00:53.095Z,22.8
2018-08-17T01:01:54.297Z,22.9
2018-08-17T01:02:58.631Z,22.8
2018-08-17T01:03:59.827Z,22.5
2018-08-17T01:05:04.066Z,22.7
2018-08-17T01:06:07.862Z,22.9
2018-08-17T01:07:09.117Z,22.6
2018-08-17T01:08:10.319Z,22.7
2018-08-17T01:09:14.623Z,22.8
2018-08-17T01:10:15.804Z,22.9
2018-08-17T01:11:17.256Z,22.7
2018-08-17T01:12:18.515Z,22.5
2018-08-17T01:13:22.184Z,22
2018-08-17T01:14:23.391Z,22.2
2018-08-17T01:15:27.463Z,22.3
2018-08-17T01:16:28.763Z,22.4
2018-08-17T01:17:29.961Z,22.3
2018-08-17T01:18:31.190Z,22.4
2018-08-17T01:19:32.395Z,22.3
2018-08-17T01:20:33.991Z,22.3
2018-08-17T01:21:35.216Z,22.1
2018-08-17T01:22:36.432Z,22
2018-08-17T01:23:37.647Z,21.6
2018-08-17T01:24:38.890Z,22
2018-08-17T01:25:40.122Z,21.4
2018-08-17T01:26:41.399Z,21.6
2018-08-17T01:27:42.625Z,21.6
2018-08-17T01:28:43.796Z,21.4
2018-08-17T01:29:48.466Z,21.3
2018-08-17T01:30:50.205Z,21.4
2018-08-17T01:31:51.423Z,21.5
2018-08-17T01:32:53.216Z,21.5
2018-08-17T01:33:54.430Z,21.6
2018-08-17T01:34:55.854Z,21.5
2018-08-17T01:35:57.239Z,21.6
2018-08-17T01:36:58.507Z,21.2
2018-08-17T01:38:00.957Z,21.5
2018-08-17T01:39:04.454Z,21.8
2018-08-17T01:40:08.086Z,21.6
2018-08-17T01:41:09.284Z,21.5
2018-08-17T01:42:10.559Z,21.8
2018-08-17T01:43:11.774Z,22.1
2018-08-17T01:44:12.960Z,22.2
2018-08-17T01:45:14.185Z,22.2
2018-08-17T01:46:15.383Z,22.1
2018-08-17T01:47:19.415Z,21.4
2018-08-17T01:48:20.638Z,21
2018-08-17T01:49:21.887Z,21.2
2018-08-17T01:50:23.079Z,21.3
2018-08-17T01:51:24.307Z,21.3
2018-08-17T01:52:25.524Z,21
2018-08-17T01:53:29.218Z,20.7
2018-08-17T01:54:30.427Z,20.7
2018-08-17T01:55:31.687Z,20.7
2018-08-17T01:56:32.958Z,20.5
2018-08-17T01:57:36.532Z,20.9
2018-08-17T01:58:37.733Z,20.9
2018-08-17T01:59:41.872Z,20.9
2018-08-17T02:00:43.069Z,20.8
2018-08-17T02:01:44.290Z,20.9
2018-08-17T02:02:46.849Z,20.8
2018-08-17T02:03:48.046Z,20.9
2018-08-17T02:04:49.265Z,20.9
2018-08-17T02:05:53.643Z,20.9
2018-08-17T02:06:54.856Z,20.9
2018-08-17T02:07:56.268Z,21
2018-08-17T02:08:57.488Z,21.2
2018-08-17T02:09:58.767Z,21.5
2018-08-17T02:10:59.999Z,21.8
2018-08-17T02:12:02.145Z,21.7
2018-08-17T02:13:03.826Z,21.6
2018-08-17T02:14:05.077Z,21.6
2018-08-17T02:15:06.299Z,21.4
2018-08-17T02:16:07.504Z,20.8
2018-08-17T02:17:08.776Z,20.3
2018-08-17T02:18:10.043Z,20.8
2018-08-17T02:19:11.284Z,20.7
2018-08-17T02:20:12.513Z,20.9
2018-08-17T02:21:13.716Z,21
2018-08-17T02:22:14.969Z,20.6
2018-08-17T02:23:16.199Z,20.4
2018-08-17T02:24:17.407Z,20.4
2018-08-17T02:25:20.399Z,20.5
2018-08-17T02:26:24.096Z,20.6
2018-08-17T02:27:25.388Z,20.4
2018-08-17T02:28:26.957Z,20.5
2018-08-17T02:29:28.185Z,20.9
2018-08-17T02:30:29.424Z,20.9
2018-08-17T02:31:30.693Z,20.9
2018-08-17T02:32:32.362Z,20.9
2018-08-17T02:33:33.920Z,20.4
2018-08-17T02:34:35.277Z,20.5
2018-08-17T02:35:40.537Z,20.6
2018-08-17T02:36:42.096Z,20.6
2018-08-17T02:37:45.006Z,20.8
2018-08-17T02:38:46.271Z,20.6
2018-08-17T02:39:48.941Z,20.7
2018-08-17T02:40:50.128Z,20.7
2018-08-17T02:41:51.341Z,20.8
2018-08-17T02:42:52.568Z,20.6
2018-08-17T02:43:53.827Z,20.4
2018-08-17T02:44:55.028Z,20.6
2018-08-17T02:45:56.248Z,20.6
2018-08-17T02:46:57.469Z,20
2018-08-17T02:47:58.651Z,19.9
2018-08-17T02:48:59.949Z,20.5
2018-08-17T02:50:01.165Z,20.5
2018-08-17T02:51:02.368Z,20.8
2018-08-17T02:52:03.685Z,21.1
2018-08-17T02:53:04.968Z,21.2
2018-08-17T02:54:06.235Z,20.3
2018-08-17T02:55:07.497Z,20.5
2018-08-17T02:56:08.719Z,20.6
2018-08-17T02:57:09.943Z,20.8
2018-08-17T02:58:11.140Z,21.1
2018-08-17T02:59:12.556Z,21.4
2018-08-17T03:00:13.751Z,21.1
2018-08-17T03:01:14.995Z,20.8
2018-08-17T03:02:16.240Z,21.1
2018-08-17T03:03:17.455Z,20.6
2018-08-17T03:04:18.734Z,20.7
2018-08-17T03:05:19.996Z,20.8
2018-08-17T03:06:21.221Z,20.3
2018-08-17T03:07:22.454Z,20.2
2018-08-17T03:08:23.684Z,20.5
2018-08-17T03:09:24.965Z,20.3
2018-08-17T03:10:26.195Z,20.3
2018-08-17T03:11:27.446Z,20.3
2018-08-17T03:12:28.666Z,20.4
2018-08-17T03:13:29.924Z,20.6
2018-08-17T03:14:31.191Z,20.7
2018-08-17T03:15:32.391Z,20.5
2018-08-17T03:16:33.622Z,20.6
2018-08-17T03:17:34.793Z,20.8
2018-08-17T03:18:36.003Z,20.8
2018-08-17T03:19:37.273Z,20.7
2018-08-17T03:20:38.495Z,21
2018-08-17T03:21:40.081Z,21.1
2018-08-17T03:22:41.716Z,21.1
2018-08-17T03:23:42.935Z,21.1
2018-08-17T03:24:44.184Z,21.2
2018-08-17T03:25:45.392Z,21.3
2018-08-17T03:26:46.618Z,21.3
2018-08-17T03:27:47.821Z,21.4
2018-08-17T03:28:49.059Z,21.3
2018-08-17T03:29:50.711Z,21.2
2018-08-17T03:30:51.960Z,21.4
2018-08-17T03:31:53.223Z,21.4
2018-08-17T03:32:54.448Z,21.2
2018-08-17T03:33:55.644Z,20.9
2018-08-17T03:34:56.893Z,21.1
2018-08-17T03:35:58.101Z,21.3
2018-08-17T03:36:59.287Z,21.4
2018-08-17T03:38:00.544Z,21.5
2018-08-17T03:39:01.954Z,21.5
2018-08-17T03:40:03.385Z,21.2
2018-08-17T03:41:04.609Z,21.3
2018-08-17T03:42:05.786Z,21.1
2018-08-17T03:43:09.678Z,21
2018-08-17T03:44:13.864Z,20.7
2018-08-17T03:45:16.495Z,20.5
2018-08-17T03:46:20.230Z,20.6
2018-08-17T03:47:21.600Z,20.7
2018-08-17T03:48:22.884Z,20.7
2018-08-17T03:49:24.124Z,20.8
2018-08-17T03:50:25.384Z,21
2018-08-17T03:51:26.617Z,21.1
2018-08-17T03:52:27.850Z,21.2
2018-08-17T03:53:29.073Z,21.3
2018-08-17T03:54:30.256Z,21.4
2018-08-17T03:55:31.476Z,21.4
2018-08-17T03:56:32.731Z,21.4
2018-08-17T03:57:33.937Z,21.4
2018-08-17T03:58:35.151Z,21.2
2018-08-17T03:59:36.332Z,21.1
2018-08-17T04:00:37.702Z,21.2
2018-08-17T04:01:38.930Z,21.3
2018-08-17T04:02:40.206Z,21.3
2018-08-17T04:03:41.769Z,21.2
2018-08-17T04:04:43.461Z,21.2
2018-08-17T04:05:44.705Z,21.2
2018-08-17T04:06:45.901Z,21.3
2018-08-17T04:07:47.089Z,21.3
2018-08-17T04:08:48.300Z,21.2
2018-08-17T04:09:49.541Z,21.2
2018-08-17T04:10:50.844Z,21.3
2018-08-17T04:11:52.116Z,21.3
2018-08-17T04:12:56.185Z,21.3
2018-08-17T04:13:57.439Z,21.3
2018-08-17T04:14:58.792Z,21.3
2018-08-17T04:16:00.305Z,21.2
2018-08-17T04:17:01.613Z,21
2018-08-17T04:18:02.816Z,20.9
2018-08-17T04:19:04.088Z,20.9
2018-08-17T04:20:05.391Z,21.1
2018-08-17T04:21:06.673Z,21.2
2018-08-17T04:22:10.465Z,21.3
2018-08-17T04:23:14.369Z,21.3
2018-08-17T04:24:15.571Z,21.3
2018-08-17T04:25:16.780Z,21.3
2018-08-17T04:26:18.010Z,21.3
2018-08-17T04:27:19.276Z,21.2
2018-08-17T04:28:20.489Z,21.1
2018-08-17T04:29:21.732Z,21.2
2018-08-17T04:30:22.970Z,21.3
2018-08-17T04:31:24.513Z,21.4
2018-08-17T04:32:25.731Z,21.4
2018-08-17T04:33:26.936Z,21.2
2018-08-17T04:34:28.159Z,21.3
2018-08-17T04:35:32.452Z,21.4
2018-08-17T04:36:33.660Z,21.3
2018-08-17T04:37:34.861Z,21.2
2018-08-17T04:38:36.088Z,21.1
2018-08-17T04:39:37.319Z,21
2018-08-17T04:40:38.549Z,21
2018-08-17T04:41:42.653Z,21
2018-08-17T04:42:44.088Z,21
2018-08-17T04:43:45.365Z,21.2
2018-08-17T04:44:49.577Z,21.2
2018-08-17T04:45:50.781Z,21.3
2018-08-17T04:46:52.316Z,21.4
2018-08-17T04:47:53.614Z,21.3
2018-08-17T04:48:54.871Z,21.4
2018-08-17T04:49:56.161Z,21.4
2018-08-17T04:50:57.441Z,21.5
2018-08-17T04:51:58.759Z,21.4
2018-08-17T04:53:00.006Z,21.4
2018-08-17T04:54:01.205Z,21.5
2018-08-17T04:55:02.434Z,21.5
2018-08-17T04:56:03.672Z,21.5
2018-08-17T04:57:05.093Z,21.5
2018-08-17T04:58:06.292Z,21.5
2018-08-17T04:59:07.535Z,21.6
2018-08-17T05:00:11.334Z,21.6
2018-08-17T05:01:12.654Z,21.6
2018-08-17T05:02:14.047Z,21.6
2018-08-17T05:03:15.479Z,21.6
2018-08-17T05:04:16.683Z,21.7
2018-08-17T05:05:17.982Z,21.7
2018-08-17T05:06:21.479Z,21.7
2018-08-17T05:07:22.810Z,21.8
2018-08-17T05:08:24.054Z,21.8
2018-08-17T05:09:25.377Z,21.8
2018-08-17T05:10:26.645Z,21.9
2018-08-17T05:11:27.978Z,21.9
2018-08-17T05:12:29.720Z,21.9
2018-08-17T05:13:30.933Z,21.9
2018-08-17T05:14:32.181Z,22
2018-08-17T05:15:34.483Z,21.8
2018-08-17T05:16:36.151Z,22
2018-08-17T05:17:37.687Z,22
2018-08-17T05:18:38.892Z,22
2018-08-17T05:19:40.218Z,22
2018-08-17T05:20:41.528Z,22.1
2018-08-17T05:21:42.811Z,22.2
2018-08-17T05:22:44.070Z,22.3
2018-08-17T05:23:45.332Z,22.4
2018-08-17T05:24:46.673Z,22.4
2018-08-17T05:25:47.887Z,22.4
2018-08-17T05:26:49.111Z,22.6
2018-08-17T05:27:50.638Z,22.6
2018-08-17T05:28:51.956Z,22.6
2018-08-17T05:29:53.174Z,22.7
2018-08-17T05:30:54.435Z,22.8
2018-08-17T05:31:55.676Z,22.8
2018-08-17T05:32:56.964Z,22.8
2018-08-17T05:33:58.257Z,23
2018-08-17T05:34:59.776Z,23
2018-08-17T05:36:01.119Z,23.1
2018-08-17T05:37:02.373Z,23.4
2018-08-17T05:38:03.665Z,23.4
2018-08-17T05:39:04.910Z,23.7
2018-08-17T05:40:06.205Z,23.3
2018-08-17T05:41:07.429Z,23.6
2018-08-17T05:42:08.700Z,23.6
2018-08-17T05:43:11.317Z,23.6
2018-08-17T05:44:12.651Z,23.9
2018-08-17T05:45:13.955Z,24
2018-08-17T05:46:15.181Z,24.3
2018-08-17T05:47:16.548Z,24.1
2018-08-17T05:48:17.874Z,23.9
2018-08-17T05:49:22.595Z,24.3
2018-08-17T05:50:23.819Z,24.2
2018-08-17T05:51:25.347Z,24.1
2018-08-17T05:52:26.676Z,24.2
2018-08-17T05:53:27.965Z,24.4
2018-08-17T05:54:29.283Z,24.3
2018-08-17T05:55:30.529Z,24.5
2018-08-17T05:56:31.768Z,25.5
2018-08-17T05:57:33.207Z,25
2018-08-17T05:58:37.465Z,24.8
2018-08-17T05:59:38.746Z,25.4
2018-08-17T06:00:40.026Z,25.4
2018-08-17T06:01:41.297Z,25.9
2018-08-17T06:02:42.613Z,26.6
2018-08-17T06:03:46.365Z,26.8
2018-08-17T06:04:47.631Z,26.4
2018-08-17T06:05:48.890Z,25.7
2018-08-17T06:06:50.896Z,26.2
2018-08-17T06:07:52.289Z,26.4
2018-08-17T06:08:53.581Z,27.1
2018-08-17T06:09:57.012Z,26.6
2018-08-17T06:10:58.276Z,26.2
2018-08-17T06:12:04.207Z,27
2018-08-17T06:13:07.471Z,27.3
2018-08-17T06:14:11.172Z,27.5
2018-08-17T06:15:12.474Z,27.6
2018-08-17T06:16:13.706Z,27.5
2018-08-17T06:17:14.934Z,27.1
2018-08-17T06:18:17.911Z,27.1
2018-08-17T06:19:19.298Z,27
2018-08-17T06:20:20.590Z,27.4
2018-08-17T06:21:21.851Z,27.1
2018-08-17T06:22:23.113Z,27.4
2018-08-17T06:23:24.338Z,27.9
2018-08-17T06:24:25.605Z,27.8
2018-08-17T06:25:26.825Z,27.7
2018-08-17T06:26:33.551Z,27.1
2018-08-17T06:27:37.888Z,27.5
2018-08-17T06:28:39.099Z,27.1
2018-08-17T06:29:43.229Z,27.1
2018-08-17T06:30:44.400Z,27.5
2018-08-17T06:31:48.202Z,27.8
2018-08-17T06:32:52.443Z,27.5
2018-08-17T06:33:55.840Z,28.1
2018-08-17T06:34:57.140Z,27.7
2018-08-17T06:35:58.395Z,27.5
2018-08-17T06:36:59.634Z,27.8
2018-08-17T06:38:02.182Z,27.5
2018-08-17T06:39:03.397Z,27.4
2018-08-17T06:40:07.287Z,28
2018-08-17T06:41:09.832Z,27.4
2018-08-17T06:42:11.201Z,28.1
2018-08-17T06:43:12.451Z,27.9
2018-08-17T06:44:13.801Z,27.6
2018-08-17T06:45:21.240Z,27.7
2018-08-17T06:46:22.558Z,28
2018-08-17T06:47:23.896Z,27.5
2018-08-17T06:48:25.343Z,27.6
2018-08-17T06:49:26.626Z,27.9
2018-08-17T06:50:27.905Z,28.1
2018-08-17T06:51:29.153Z,27.9
2018-08-17T06:52:30.647Z,28.4
2018-08-17T06:53:31.917Z,28.3
2018-08-17T06:54:33.266Z,28.1
2018-08-17T06:55:34.584Z,27.9
2018-08-17T06:56:35.843Z,28.4
2018-08-17T06:57:39.299Z,28.1
2018-08-17T06:58:42.996Z,28.3
2018-08-17T06:59:44.270Z,28.8
2018-08-17T07:00:45.564Z,28.6
2018-08-17T07:01:46.772Z,28.6
2018-08-17T07:02:52.316Z,28.6
2018-08-17T07:03:53.738Z,28.4
2018-08-17T07:04:56.305Z,28.2
2018-08-17T07:05:58.935Z,28.4
2018-08-17T07:07:00.299Z,28.4
2018-08-17T07:08:01.596Z,28.4
2018-08-17T07:09:02.848Z,28.5
2018-08-17T07:10:06.155Z,28.7
2018-08-17T07:11:07.472Z,28.2
2018-08-17T07:12:08.733Z,28.4
2018-08-17T07:13:12.818Z,28.7
2018-08-17T07:14:14.071Z,29
2018-08-17T07:15:15.405Z,29
2018-08-17T07:16:16.724Z,28.7
2018-08-17T07:17:18.189Z,29
2018-08-17T07:18:19.842Z,29.2
2018-08-17T07:19:21.275Z,30
2018-08-17T07:20:22.609Z,29.4
2018-08-17T07:21:23.843Z,29.1
2018-08-17T07:22:26.037Z,30
2018-08-17T07:23:27.884Z,30.1
2018-08-17T07:24:31.890Z,30.2
2018-08-17T07:25:34.133Z,30.6
2018-08-17T07:26:35.450Z,30
2018-08-17T07:27:46.392Z,29.5
2018-08-17T07:28:49.012Z,29.3
2018-08-17T07:29:50.304Z,29.8
2018-08-17T07:30:51.763Z,30.2
2018-08-17T07:31:55.505Z,30
2018-08-17T07:32:56.695Z,29.9
2018-08-17T07:33:59.107Z,30.1
2018-08-17T07:35:03.405Z,30.1
2018-08-17T07:36:04.695Z,29.5
2018-08-17T07:37:06.037Z,29.6
2018-08-17T07:38:07.303Z,30.2
2018-08-17T07:39:08.614Z,30.3
2018-08-17T07:40:09.854Z,30
2018-08-17T07:41:11.184Z,29.9
2018-08-17T07:42:15.476Z,29.6
2018-08-17T07:43:16.764Z,30.1
2018-08-17T07:44:17.984Z,30.1
2018-08-17T07:45:19.221Z,29.8
2018-08-17T07:46:20.522Z,29.7
2018-08-17T07:47:21.787Z,30
2018-08-17T07:48:23.143Z,30.1
2018-08-17T07:49:26.717Z,30.1
2018-08-17T07:50:31.368Z,30.2
2018-08-17T07:51:32.672Z,30.1
2018-08-17T07:52:35.312Z,29.8
2018-08-17T07:53:36.631Z,29.6
2018-08-17T07:54:37.864Z,29.8
2018-08-17T07:55:39.081Z,30.1
2018-08-17T07:56:43.260Z,29.9
2018-08-17T07:57:48.247Z,30.3
2018-08-17T07:58:49.510Z,30.1
2018-08-17T07:59:51.092Z,30.2
2018-08-17T08:00:52.688Z,30.5
2018-08-17T08:01:58.043Z,30.4
2018-08-17T08:03:02.571Z,30.3
2018-08-17T08:04:05.984Z,30.6
2018-08-17T08:05:07.374Z,30.6
2018-08-17T08:06:11.485Z,30.6
2018-08-17T08:07:14.851Z,30.5
2018-08-17T08:08:18.592Z,30.6
2018-08-17T08:09:19.842Z,30.6
2018-08-17T08:10:21.198Z,30.6
2018-08-17T08:11:22.433Z,30.4
2018-08-17T08:12:40.996Z,30.7
2018-08-17T08:13:48.934Z,30.7
2018-08-17T08:14:55.766Z,30.7
2018-08-17T08:16:00.251Z,30.8
2018-08-17T08:17:01.759Z,30.7
2018-08-17T08:18:03.017Z,30.5
2018-08-17T08:19:09.276Z,30.7
2018-08-17T08:20:14.738Z,30.9
2018-08-17T08:21:20.184Z,30.6
2018-08-17T08:22:21.674Z,30.6
2018-08-17T08:23:23.174Z,31
2018-08-17T08:24:29.832Z,30.9
2018-08-17T08:25:33.109Z,31
2018-08-17T08:26:37.144Z,30.7
2018-08-17T08:27:38.492Z,30.8
2018-08-17T08:28:43.831Z,31
2018-08-17T08:29:45.257Z,30.8
2018-08-17T08:30:46.599Z,30.7
2018-08-17T08:31:50.342Z,30.5
2018-08-17T08:32:54.177Z,30.9
2018-08-17T08:33:56.522Z,31.4
2018-08-17T08:35:00.528Z,31.9
2018-08-17T08:36:03.013Z,31.6
2018-08-17T08:37:07.325Z,30.7
2018-08-17T08:38:10.772Z,30.9
2018-08-17T08:39:12.245Z,30.9
2018-08-17T08:40:13.630Z,30.6
2018-08-17T08:41:16.150Z,30.7
2018-08-17T08:42:17.427Z,30.7
2018-08-17T08:43:18.769Z,30.4
2018-08-17T08:44:20.092Z,30.8
2018-08-17T08:45:22.107Z,30.7
2018-08-17T08:46:26.209Z,30.7
2018-08-17T08:47:27.447Z,30.8
2018-08-17T08:48:28.718Z,31
2018-08-17T08:49:30.298Z,30.6
2018-08-17T08:50:31.594Z,30.9
2018-08-17T08:51:35.336Z,31.4
2018-08-17T08:52:38.627Z,31.3
2018-08-17T08:53:39.953Z,31
2018-08-17T08:54:41.272Z,31
2018-08-17T08:55:45.608Z,31
2018-08-17T08:56:51.826Z,30.9
2018-08-17T08:57:55.774Z,30.8
2018-08-17T08:58:57.261Z,31.1
2018-08-17T08:59:59.668Z,31.1
2018-08-17T09:01:03.571Z,30.6
2018-08-17T09:02:08.109Z,30.6
2018-08-17T09:03:12.244Z,30.6
2018-08-17T09:04:16.362Z,31.1
2018-08-17T09:05:21.583Z,31.5
2018-08-17T09:06:25.273Z,31.4
2018-08-17T09:07:30.280Z,31
2018-08-17T09:08:31.632Z,30.7
2018-08-17T09:09:36.181Z,30.7
2018-08-17T09:10:37.781Z,30.8
2018-08-17T09:11:39.275Z,30.8
2018-08-17T09:12:40.599Z,30.6
2018-08-17T09:13:49.365Z,30.8
2018-08-17T09:14:50.549Z,30.7
2018-08-17T09:15:54.244Z,31
2018-08-17T09:16:55.964Z,31.1
2018-08-17T09:17:57.303Z,31.2
2018-08-17T09:18:58.706Z,31
2018-08-17T09:20:01.043Z,31
2018-08-17T09:21:05.268Z,31.1
2018-08-17T09:22:11.413Z,31.1
2018-08-17T09:23:13.022Z,31
2018-08-17T09:24:14.451Z,30.8
2018-08-17T09:25:15.988Z,31
2018-08-17T09:26:17.283Z,30.8
2018-08-17T09:27:18.651Z,30.8
2018-08-17T09:28:19.891Z,31
2018-08-17T09:29:21.351Z,30.8
2018-08-17T09:30:32.147Z,31
2018-08-17T09:31:36.161Z,30.9
2018-08-17T09:32:37.503Z,30.9
2018-08-17T09:33:41.190Z,30.9
2018-08-17T09:34:42.431Z,30.8
2018-08-17T09:35:46.806Z,30.9
2018-08-17T09:36:48.255Z,30.8
2018-08-17T09:38:11.800Z,31
2018-08-17T09:39:20.422Z,31
2018-08-17T09:40:21.807Z,31
2018-08-17T09:41:23.314Z,31
2018-08-17T09:42:28.211Z,31
2018-08-17T09:43:32.355Z,31
2018-08-17T09:44:33.665Z,30.8
2018-08-17T09:45:34.908Z,31
2018-08-17T09:46:36.223Z,30.9
2018-08-17T09:47:37.634Z,30.7
2018-08-17T09:48:38.922Z,30.8
2018-08-17T09:49:43.325Z,30.9
2018-08-17T09:50:53.082Z,30.9
2018-08-17T09:51:56.033Z,30.9
2018-08-17T09:53:00.427Z,31.1
2018-08-17T09:54:01.848Z,31.1
2018-08-17T09:55:03.271Z,30.9
2018-08-17T09:56:04.945Z,31.1
2018-08-17T09:57:12.808Z,30.9
2018-08-17T09:58:17.501Z,30.8
2018-08-17T09:59:19.460Z,30.9
2018-08-17T10:00:20.949Z,30.9
2018-08-17T10:01:24.789Z,30.9
2018-08-17T10:02:30.341Z,31
2018-08-17T10:03:39.803Z,31
2018-08-17T10:04:44.280Z,30.9
2018-08-17T10:05:47.432Z,30.8
2018-08-17T10:06:54.280Z,30.8
2018-08-17T10:07:55.814Z,30.8
2018-08-17T10:09:02.013Z,30.9
2018-08-17T10:10:03.295Z,31
2018-08-17T10:11:09.137Z,30.9
2018-08-17T10:12:13.499Z,31
2018-08-17T10:13:14.822Z,30.8
2018-08-17T10:14:24.935Z,30.9
2018-08-17T10:15:27.275Z,31
2018-08-17T10:16:29.789Z,30.8
2018-08-17T10:17:31.088Z,30.9
2018-08-17T10:18:32.598Z,31
2018-08-17T10:19:38.609Z,31.1
2018-08-17T10:20:40.294Z,31.1
2018-08-17T10:21:42.192Z,31
2018-08-17T10:22:43.391Z,31
2018-08-17T10:23:49.880Z,30.9
2018-08-17T10:24:51.667Z,30.8
2018-08-17T10:25:54.586Z,30.7
2018-08-17T10:28:18.825Z,30.8
2018-08-17T10:29:20.658Z,30.9
2018-08-17T10:30:23.067Z,30.8
2018-08-17T10:31:25.998Z,30.6
2018-08-17T10:32:28.115Z,30.5
2018-08-17T10:33:32.626Z,30.6
2018-08-17T10:34:48.471Z,30.6
2018-08-17T10:35:50.199Z,30.4
2018-08-17T10:36:54.077Z,30.5
2018-08-17T10:37:55.788Z,30.6
2018-08-17T10:38:58.061Z,30
2018-08-17T10:40:01.736Z,30.3
2018-08-17T10:41:03.266Z,30.1
2018-08-17T10:42:05.226Z,30.3
2018-08-17T10:43:07.185Z,30
2018-08-17T10:44:08.626Z,30.1
2018-08-17T10:45:09.921Z,30
2018-08-17T10:46:11.324Z,30.3
2018-08-17T10:47:15.444Z,30.3
2018-08-17T10:48:16.704Z,30.2
2018-08-17T10:49:18.058Z,30.2
2018-08-17T10:50:19.421Z,30.3
2018-08-17T10:51:20.991Z,30.2
2018-08-17T10:52:23.944Z,30.1
2018-08-17T10:53:25.228Z,30.2
2018-08-17T10:54:26.461Z,30.2
2018-08-17T10:55:27.710Z,30.2
2018-08-17T10:56:29.041Z,30.1
2018-08-17T10:57:30.392Z,30
2018-08-17T10:58:31.860Z,30.1
2018-08-17T10:59:35.429Z,30.2
2018-08-17T11:00:36.890Z,30
2018-08-17T11:01:38.303Z,29.5
2018-08-17T11:02:41.340Z,29.1
2018-08-17T11:03:42.728Z,29.1
2018-08-17T11:04:44.082Z,29.6
2018-08-17T11:05:47.380Z,29.8
2018-08-17T11:06:50.985Z,29.8
2018-08-17T11:07:55.670Z,29.7
2018-08-17T11:08:56.981Z,29.6
2018-08-17T11:09:59.859Z,29.7
2018-08-17T11:11:01.652Z,29.6
2018-08-17T11:12:03.115Z,29.7
2018-08-17T11:13:09.334Z,29.7
2018-08-17T11:14:10.739Z,29.8
2018-08-17T11:15:15.693Z,29.7
2018-08-17T11:16:26.172Z,29.8
2018-08-17T11:17:30.205Z,29.9
2018-08-17T11:18:33.119Z,29.7
2018-08-17T11:19:37.703Z,29.4
2018-08-17T11:20:47.544Z,29.6
2018-08-17T11:21:49.160Z,29.5
2018-08-17T11:24:06.724Z,29.5
2018-08-17T11:25:08.014Z,29.7
2018-08-17T11:26:14.453Z,29.8
2018-08-17T11:27:23.287Z,29.7
2018-08-17T11:28:27.732Z,29.7
2018-08-17T11:29:29.989Z,29.7
2018-08-17T11:30:31.539Z,29.6
2018-08-17T11:31:33.222Z,29.7
2018-08-17T11:32:35.387Z,29.5
2018-08-17T11:33:36.980Z,29.6
2018-08-17T11:34:38.463Z,29.3
2018-08-17T11:35:46.884Z,29.3
2018-08-17T11:36:48.319Z,29.4
2018-08-17T11:37:51.910Z,29.5
2018-08-17T11:38:55.667Z,29.5
2018-08-17T11:40:00.084Z,29.6
2018-08-17T11:41:03.952Z,29.7
2018-08-17T11:42:05.265Z,29.6
2018-08-17T11:43:06.734Z,29.5
2018-08-17T11:44:08.256Z,28.8
2018-08-17T11:45:09.627Z,28.7
2018-08-17T11:46:13.916Z,28.2
2018-08-17T11:47:15.198Z,28.2
2018-08-17T11:48:19.307Z,28.4
2018-08-17T11:49:21.118Z,28.4
2018-08-17T11:50:22.565Z,28.8
2018-08-17T11:51:28.617Z,28.9
2018-08-17T11:52:29.933Z,29
2018-08-17T11:53:33.803Z,29.1
2018-08-17T11:54:35.281Z,29
2018-08-17T11:55:36.625Z,29.1
2018-08-17T11:56:37.927Z,29.2
2018-08-17T11:57:39.301Z,29.2
2018-08-17T11:58:49.455Z,29.2
2018-08-17T11:59:51.757Z,29.3
2018-08-17T12:00:53.032Z,29.2
2018-08-17T12:01:54.356Z,29.3
2018-08-17T12:02:59.177Z,28.6
2018-08-17T12:04:00.423Z,28.5
2018-08-17T12:05:03.797Z,28.8
2018-08-17T12:06:08.530Z,28.3
2018-08-17T12:07:09.888Z,28
2018-08-17T12:08:19.464Z,28
2018-08-17T12:09:23.230Z,27.8
2018-08-17T12:10:25.805Z,28.2
2018-08-17T12:11:27.296Z,28.5
2018-08-17T12:12:31.103Z,28.3
2018-08-17T12:13:33.807Z,27.9
2018-08-17T12:14:35.269Z,28.2
2018-08-17T12:15:41.259Z,28.6
2018-08-17T12:16:48.188Z,28.5
2018-08-17T12:17:52.520Z,28.7
2018-08-17T12:18:56.169Z,28.8
2018-08-17T12:20:00.317Z,28.8
2018-08-17T12:21:01.673Z,28.6
2018-08-17T12:22:03.295Z,28.7
2018-08-17T12:23:06.824Z,28.8
2018-08-17T12:24:15.395Z,28.8
2018-08-17T12:25:17.842Z,29
2018-08-17T12:26:25.647Z,29.1
2018-08-17T12:27:29.528Z,28.9
2018-08-17T12:28:36.174Z,29.1
2018-08-17T12:29:37.561Z,29.2
2018-08-17T12:30:44.274Z,28.7
2018-08-17T12:31:51.516Z,28.5
2018-08-17T12:32:55.428Z,28.7
2018-08-17T12:34:02.467Z,28.6
2018-08-17T12:35:06.741Z,28.7
2018-08-17T12:36:08.243Z,28.9
2018-08-17T12:37:09.626Z,28.8
2018-08-17T12:38:10.972Z,28.9
2018-08-17T12:39:14.311Z,28.8
2018-08-17T12:40:15.715Z,28.8
2018-08-17T12:41:24.798Z,28.9
2018-08-17T12:42:28.701Z,28.7
2018-08-17T12:43:30.035Z,28.3
2018-08-17T12:44:31.371Z,28.1
2018-08-17T12:45:41.691Z,28.2
2018-08-17T12:46:43.089Z,28.2
2018-08-17T12:47:44.366Z,28.4
2018-08-17T12:48:46.250Z,28.4
2018-08-17T12:49:47.903Z,28.6
2018-08-17T12:50:49.104Z,28.7
2018-08-17T12:51:50.399Z,28.9
2018-08-17T12:52:54.006Z,29
2018-08-17T12:53:56.460Z,28.9
2018-08-17T12:54:57.701Z,28.6
2018-08-17T12:55:59.224Z,28.6
2018-08-17T12:57:00.481Z,28.5
2018-08-17T12:58:05.453Z,28.8
2018-08-17T12:59:16.120Z,28.7
2018-08-17T13:00:21.594Z,28.7
2018-08-17T13:01:29.036Z,28.9
2018-08-17T13:02:30.653Z,28.9
2018-08-17T13:03:34.161Z,29
2018-08-17T13:04:38.704Z,29.1
2018-08-17T13:05:40.227Z,29
2018-08-17T13:06:41.615Z,29
2018-08-17T13:07:42.961Z,29
2018-08-17T13:08:44.248Z,28.9
2018-08-17T13:09:47.122Z,28.8
2018-08-17T13:10:50.908Z,29
2018-08-17T13:11:54.758Z,28.8
2018-08-17T13:12:56.222Z,28.7
2018-08-17T13:14:00.657Z,28.9
2018-08-17T13:15:04.287Z,28.8
2018-08-17T13:16:05.837Z,28.9
2018-08-17T13:17:08.698Z,29
2018-08-17T13:18:13.728Z,28.9
2018-08-17T13:19:15.275Z,28.5
2018-08-17T13:20:16.614Z,28.7
2018-08-17T13:21:19.084Z,28.9
2018-08-17T13:22:20.358Z,29
2018-08-17T13:23:21.639Z,28.7
2018-08-17T13:24:23.138Z,28.7
2018-08-17T13:25:24.664Z,28.7
2018-08-17T13:26:26.047Z,28.9
2018-08-17T13:27:27.736Z,28.6
2018-08-17T13:28:36.987Z,28.7
2018-08-17T13:29:42.179Z,28.7
2018-08-17T13:30:43.864Z,28.6
2018-08-17T13:31:53.402Z,28.7
2018-08-17T13:32:54.838Z,28.9
2018-08-17T13:34:02.514Z,29
2018-08-17T13:35:03.933Z,28.8
2018-08-17T13:36:05.296Z,28.9
2018-08-17T13:37:09.300Z,29
2018-08-17T13:38:12.321Z,29.1
2018-08-17T13:39:13.647Z,29.1
2018-08-17T13:40:15.000Z,29.2
2018-08-17T13:41:22.960Z,29.3
2018-08-17T13:43:26.146Z,29.3
2018-08-17T13:44:30.196Z,29.1
2018-08-17T13:45:34.151Z,29.2
2018-08-17T13:46:37.631Z,29.3
2018-08-17T13:47:40.206Z,29.3
2018-08-17T13:48:41.487Z,29.2
2018-08-17T13:49:47.564Z,29.3
2018-08-17T13:50:49.612Z,29.3
2018-08-17T13:51:52.965Z,29.2
2018-08-17T13:52:54.243Z,29.2
2018-08-17T13:53:55.578Z,29
2018-08-17T13:54:56.843Z,29
2018-08-17T13:56:00.314Z,29
2018-08-17T13:57:01.939Z,28.9
2018-08-17T13:58:06.529Z,29
2018-08-17T13:59:07.821Z,29
2018-08-17T14:00:11.691Z,29.1
2018-08-17T14:01:15.644Z,29
2018-08-17T14:02:19.509Z,29.1